sensor_id;sensor_type;location;lat;lon;timestamp;temperature;humidity
23497;DHT22;11925;48.122;11.560;2023-11-21T00:22:41;12.20;98.50
23497;DHT22;11925;48.122;11.560;2023-11-21T00:25:10;12.20;98.90
23497;DHT22;11925;48.122;11.560;2023-11-21T00:27:39;12.20;99.10
23497;DHT22;11925;48.122;11.560;2023-11-21T00:30:07;12.20;99.20
23497;DHT22;11925;48.122;11.560;2023-11-21T00:32:37;12.10;99.20
23497;DHT22;11925;48.122;11.560;2023-11-21T00:35:07;12.10;99.20
23497;DHT22;11925;48.122;11.560;2023-11-21T00:37:36;12.10;99.30
23497;DHT22;11925;48.122;11.560;2023-11-21T00:40:07;12.20;99.30
23497;DHT22;11925;48.122;11.560;2023-11-21T00:42:36;12.10;99.20
23497;DHT22;11925;48.122;11.560;2023-11-21T00:45:07;12.20;99.20
23497;DHT22;11925;48.122;11.560;2023-11-21T00:47:35;12.20;99.30
23497;DHT22;11925;48.122;11.560;2023-11-21T00:50:05;12.20;99.50
23497;DHT22;11925;48.122;11.560;2023-11-21T00:52:36;12.20;99.80
23497;DHT22;11925;48.122;11.560;2023-11-21T00:55:05;12.20;99.90
23497;DHT22;11925;48.122;11.560;2023-11-21T00:57:35;12.20;99.90
23497;DHT22;11925;48.122;11.560;2023-11-21T01:00:06;12.20;99.90
23497;DHT22;11925;48.122;11.560;2023-11-21T01:02:36;12.20;99.90
23497;DHT22;11925;48.122;11.560;2023-11-21T01:05:05;12.20;99.90
23497;DHT22;11925;48.122;11.560;2023-11-21T01:07:36;12.10;99.90
23497;DHT22;11925;48.122;11.560;2023-11-21T01:10:05;12.10;99.90
23497;DHT22;11925;48.122;11.560;2023-11-21T01:12:34;12.10;99.90
23497;DHT22;11925;48.122;11.560;2023-11-21T01:15:04;12.10;99.90
23497;DHT22;11925;48.122;11.560;2023-11-21T01:17:34;12.10;99.90
23497;DHT22;11925;48.122;11.560;2023-11-21T01:20:03;12.10;99.90
23497;DHT22;11925;48.122;11.560;2023-11-21T01:22:41;12.30;99.90
23497;DHT22;11925;48.122;11.560;2023-11-21T01:25:10;12.30;99.90
23497;DHT22;11925;48.122;11.560;2023-11-21T01:27:42;12.40;99.90
23497;DHT22;11925;48.122;11.560;2023-11-21T01:30:11;12.30;99.90
23497;DHT22;11925;48.122;11.560;2023-11-21T10:03:01;12.50;98.80
23497;DHT22;11925;48.122;11.560;2023-11-21T10:05:30;12.60;99.10
23497;DHT22;11925;48.122;11.560;2023-11-21T10:08:01;12.50;99.40
23497;DHT22;11925;48.122;11.560;2023-11-21T10:10:32;12.30;99.40
23497;DHT22;11925;48.122;11.560;2023-11-21T10:13:04;12.20;99.40
23497;DHT22;11925;48.122;11.560;2023-11-21T10:15:35;12.20;99.60
23497;DHT22;11925;48.122;11.560;2023-11-21T10:18:04;12.10;99.60
23497;DHT22;11925;48.122;11.560;2023-11-21T10:20:33;12.10;99.70
23497;DHT22;11925;48.122;11.560;2023-11-21T10:23:01;12.10;99.70
23497;DHT22;11925;48.122;11.560;2023-11-21T10:25:31;12.00;99.80
23497;DHT22;11925;48.122;11.560;2023-11-21T10:28:02;12.00;99.80
23497;DHT22;11925;48.122;11.560;2023-11-21T10:30:37;12.00;99.70
23497;DHT22;11925;48.122;11.560;2023-11-21T10:33:07;12.00;99.90
23497;DHT22;11925;48.122;11.560;2023-11-21T10:35:42;12.00;99.90
23497;DHT22;11925;48.122;11.560;2023-11-21T10:38:14;12.00;99.90
23497;DHT22;11925;48.122;11.560;2023-11-21T10:40:44;12.00;99.90
23497;DHT22;11925;48.122;11.560;2023-11-21T10:43:14;12.00;99.90
23497;DHT22;11925;48.122;11.560;2023-11-21T10:45:44;12.00;99.90
23497;DHT22;11925;48.122;11.560;2023-11-21T10:48:14;12.00;99.90
23497;DHT22;11925;48.122;11.560;2023-11-21T10:50:44;12.00;99.90
23497;DHT22;11925;48.122;11.560;2023-11-21T10:53:13;12.00;99.90
23497;DHT22;11925;48.122;11.560;2023-11-21T10:55:42;12.00;99.90
23497;DHT22;11925;48.122;11.560;2023-11-21T10:58:14;12.00;99.90
23497;DHT22;11925;48.122;11.560;2023-11-21T11:00:44;11.90;99.90
23497;DHT22;11925;48.122;11.560;2023-11-21T11:03:13;11.90;99.90
23497;DHT22;11925;48.122;11.560;2023-11-21T11:05:44;12.00;99.90
23497;DHT22;11925;48.122;11.560;2023-11-21T11:08:21;12.00;99.90
23497;DHT22;11925;48.122;11.560;2023-11-21T11:10:55;12.00;99.90
23497;DHT22;11925;48.122;11.560;2023-11-21T11:13:25;12.00;99.90
23497;DHT22;11925;48.122;11.560;2023-11-21T11:15:59;12.00;99.90
23497;DHT22;11925;48.122;11.560;2023-11-21T11:18:28;12.10;99.90
23497;DHT22;11925;48.122;11.560;2023-11-21T11:21:05;12.10;99.90
23497;DHT22;11925;48.122;11.560;2023-11-21T11:23:46;12.10;99.90
23497;DHT22;11925;48.122;11.560;2023-11-21T11:26:28;12.10;99.90
23497;DHT22;11925;48.122;11.560;2023-11-21T11:29:05;12.10;99.90
23497;DHT22;11925;48.122;11.560;2023-11-21T11:31:46;12.00;99.90
23497;DHT22;11925;48.122;11.560;2023-11-21T11:34:23;12.00;99.90
23497;DHT22;11925;48.122;11.560;2023-11-21T11:36:59;12.00;99.90
23497;DHT22;11925;48.122;11.560;2023-11-21T11:39:30;12.00;99.90
23497;DHT22;11925;48.122;11.560;2023-11-21T11:42:02;12.00;99.90
23497;DHT22;11925;48.122;11.560;2023-11-21T11:44:48;12.00;99.90
23497;DHT22;11925;48.122;11.560;2023-11-21T11:47:27;12.00;99.90
23497;DHT22;11925;48.122;11.560;2023-11-21T11:50:04;12.10;99.90
23497;DHT22;11925;48.122;11.560;2023-11-21T11:52:39;12.10;99.90
23497;DHT22;11925;48.122;11.560;2023-11-21T11:55:09;12.10;99.90
23497;DHT22;11925;48.122;11.560;2023-11-21T11:57:38;12.10;99.90
23497;DHT22;11925;48.122;11.560;2023-11-21T12:00:12;12.10;99.90
23497;DHT22;11925;48.122;11.560;2023-11-21T12:02:47;12.10;99.90
23497;DHT22;11925;48.122;11.560;2023-11-21T12:05:16;12.10;99.90
23497;DHT22;11925;48.122;11.560;2023-11-21T12:07:47;12.10;99.90
23497;DHT22;11925;48.122;11.560;2023-11-21T12:10:17;12.10;99.90
23497;DHT22;11925;48.122;11.560;2023-11-21T12:12:47;12.10;99.90
23497;DHT22;11925;48.122;11.560;2023-11-21T12:15:15;12.10;99.90
23497;DHT22;11925;48.122;11.560;2023-11-21T12:17:46;12.10;99.90
23497;DHT22;11925;48.122;11.560;2023-11-21T12:20:18;12.10;99.90
23497;DHT22;11925;48.122;11.560;2023-11-21T12:22:48;12.10;99.90
23497;DHT22;11925;48.122;11.560;2023-11-21T12:25:17;12.10;99.90
23497;DHT22;11925;48.122;11.560;2023-11-21T12:27:47;12.20;99.90
23497;DHT22;11925;48.122;11.560;2023-11-21T12:30:18;12.20;99.90
23497;DHT22;11925;48.122;11.560;2023-11-21T12:32:50;12.20;99.90
23497;DHT22;11925;48.122;11.560;2023-11-21T12:35:21;12.20;99.90
23497;DHT22;11925;48.122;11.560;2023-11-21T12:37:52;12.20;99.90
23497;DHT22;11925;48.122;11.560;2023-11-21T12:40:23;12.20;99.90
23497;DHT22;11925;48.122;11.560;2023-11-21T12:42:53;12.20;99.90
23497;DHT22;11925;48.122;11.560;2023-11-21T12:45:23;12.20;99.90
23497;DHT22;11925;48.122;11.560;2023-11-21T12:47:58;12.20;99.90
23497;DHT22;11925;48.122;11.560;2023-11-21T12:50:29;12.20;99.90
23497;DHT22;11925;48.122;11.560;2023-11-21T12:53:00;12.20;99.90
23497;DHT22;11925;48.122;11.560;2023-11-21T12:55:30;12.20;99.90
23497;DHT22;11925;48.122;11.560;2023-11-21T12:58:01;12.20;99.90
23497;DHT22;11925;48.122;11.560;2023-11-21T13:00:40;12.20;99.90
23497;DHT22;11925;48.122;11.560;2023-11-21T13:03:12;12.10;99.90
23497;DHT22;11925;48.122;11.560;2023-11-21T13:05:46;12.10;99.90
23497;DHT22;11925;48.122;11.560;2023-11-21T13:08:18;12.00;99.90
23497;DHT22;11925;48.122;11.560;2023-11-21T13:10:50;12.10;99.90
23497;DHT22;11925;48.122;11.560;2023-11-21T13:15:52;12.10;99.90
23497;DHT22;11925;48.122;11.560;2023-11-21T13:18:23;12.10;99.90
23497;DHT22;11925;48.122;11.560;2023-11-21T13:20:54;12.10;99.90
23497;DHT22;11925;48.122;11.560;2023-11-21T15:33:18;12.40;99.90
23497;DHT22;11925;48.122;11.560;2023-11-21T15:35:47;12.40;99.90
23497;DHT22;11925;48.122;11.560;2023-11-21T15:38:16;12.40;99.90
23497;DHT22;11925;48.122;11.560;2023-11-21T15:40:45;12.40;99.90
23497;DHT22;11925;48.122;11.560;2023-11-21T15:43:13;12.30;99.90
23497;DHT22;11925;48.122;11.560;2023-11-21T15:45:42;12.40;99.90
23497;DHT22;11925;48.122;11.560;2023-11-21T15:48:11;12.40;99.90
23497;DHT22;11925;48.122;11.560;2023-11-21T15:50:39;12.50;99.90
23497;DHT22;11925;48.122;11.560;2023-11-21T15:53:08;12.60;99.90
23497;DHT22;11925;48.122;11.560;2023-11-21T15:55:38;12.60;99.90
23497;DHT22;11925;48.122;11.560;2023-11-21T15:58:09;12.60;99.90
23497;DHT22;11925;48.122;11.560;2023-11-21T16:00:38;12.60;99.90
23497;DHT22;11925;48.122;11.560;2023-11-21T16:03:07;12.60;99.90
23497;DHT22;11925;48.122;11.560;2023-11-21T16:05:36;12.50;99.90
23497;DHT22;11925;48.122;11.560;2023-11-21T16:08:05;12.50;99.90
23497;DHT22;11925;48.122;11.560;2023-11-21T16:10:33;12.60;99.90
23497;DHT22;11925;48.122;11.560;2023-11-21T16:13:04;12.60;99.90
23497;DHT22;11925;48.122;11.560;2023-11-21T16:15:35;12.60;99.90
23497;DHT22;11925;48.122;11.560;2023-11-21T16:18:03;12.60;99.90
23497;DHT22;11925;48.122;11.560;2023-11-21T16:20:32;12.70;99.90
23497;DHT22;11925;48.122;11.560;2023-11-21T16:23:01;12.70;99.90
23497;DHT22;11925;48.122;11.560;2023-11-21T16:25:29;12.70;99.90
23497;DHT22;11925;48.122;11.560;2023-11-21T16:27:58;12.70;99.90
23497;DHT22;11925;48.122;11.560;2023-11-21T16:30:32;12.60;99.90
23497;DHT22;11925;48.122;11.560;2023-11-21T16:33:01;12.60;99.90
23497;DHT22;11925;48.122;11.560;2023-11-21T16:35:30;12.70;99.90
23497;DHT22;11925;48.122;11.560;2023-11-21T16:37:59;12.70;99.90
23497;DHT22;11925;48.122;11.560;2023-11-21T16:40:27;12.70;99.90
23497;DHT22;11925;48.122;11.560;2023-11-21T16:42:56;12.70;99.90
23497;DHT22;11925;48.122;11.560;2023-11-21T16:45:25;12.60;99.90
23497;DHT22;11925;48.122;11.560;2023-11-21T16:47:54;12.60;99.90
23497;DHT22;11925;48.122;11.560;2023-11-21T16:50:23;12.60;99.90
23497;DHT22;11925;48.122;11.560;2023-11-21T16:52:52;12.50;99.90
23497;DHT22;11925;48.122;11.560;2023-11-21T16:55:20;12.50;99.90
23497;DHT22;11925;48.122;11.560;2023-11-21T16:57:50;12.40;99.90
23497;DHT22;11925;48.122;11.560;2023-11-21T17:00:19;12.40;99.90
23497;DHT22;11925;48.122;11.560;2023-11-21T17:02:50;12.40;99.90
23497;DHT22;11925;48.122;11.560;2023-11-21T17:05:19;12.40;99.90
23497;DHT22;11925;48.122;11.560;2023-11-21T17:07:48;12.40;99.90
23497;DHT22;11925;48.122;11.560;2023-11-21T17:10:18;12.40;99.90
23497;DHT22;11925;48.122;11.560;2023-11-21T17:12:47;12.40;99.90
23497;DHT22;11925;48.122;11.560;2023-11-21T17:15:16;12.40;99.90
23497;DHT22;11925;48.122;11.560;2023-11-21T17:17:45;12.40;99.90
23497;DHT22;11925;48.122;11.560;2023-11-21T17:20:14;12.40;99.90
23497;DHT22;11925;48.122;11.560;2023-11-21T17:22:45;12.40;99.90
23497;DHT22;11925;48.122;11.560;2023-11-21T17:25:13;12.40;99.90
23497;DHT22;11925;48.122;11.560;2023-11-21T17:27:42;12.50;99.90
23497;DHT22;11925;48.122;11.560;2023-11-21T17:30:11;12.60;99.90
23497;DHT22;11925;48.122;11.560;2023-11-21T17:32:39;12.50;99.90
23497;DHT22;11925;48.122;11.560;2023-11-21T17:35:09;12.40;99.90
23497;DHT22;11925;48.122;11.560;2023-11-21T17:37:38;12.40;99.90
23497;DHT22;11925;48.122;11.560;2023-11-21T17:40:08;12.40;99.90
23497;DHT22;11925;48.122;11.560;2023-11-21T17:42:37;12.40;99.90
23497;DHT22;11925;48.122;11.560;2023-11-21T17:45:07;12.40;99.90
23497;DHT22;11925;48.122;11.560;2023-11-21T17:47:36;12.40;99.90
23497;DHT22;11925;48.122;11.560;2023-11-21T17:50:04;12.40;99.90
23497;DHT22;11925;48.122;11.560;2023-11-21T17:52:33;12.40;99.90
23497;DHT22;11925;48.122;11.560;2023-11-21T17:55:01;12.30;99.90
23497;DHT22;11925;48.122;11.560;2023-11-21T17:57:33;12.30;99.90
23497;DHT22;11925;48.122;11.560;2023-11-21T18:00:03;12.30;99.90
23497;DHT22;11925;48.122;11.560;2023-11-21T18:02:34;12.30;99.90
23497;DHT22;11925;48.122;11.560;2023-11-21T18:05:05;12.30;99.90
23497;DHT22;11925;48.122;11.560;2023-11-21T18:07:38;12.30;99.90
23497;DHT22;11925;48.122;11.560;2023-11-21T18:10:08;12.20;99.90
23497;DHT22;11925;48.122;11.560;2023-11-21T18:12:38;12.30;99.90
23497;DHT22;11925;48.122;11.560;2023-11-21T18:15:07;12.30;99.90
23497;DHT22;11925;48.122;11.560;2023-11-21T18:17:35;12.30;99.90
23497;DHT22;11925;48.122;11.560;2023-11-21T18:20:05;12.30;99.90
23497;DHT22;11925;48.122;11.560;2023-11-21T18:22:33;12.30;99.90
23497;DHT22;11925;48.122;11.560;2023-11-21T18:25:02;12.30;99.90
23497;DHT22;11925;48.122;11.560;2023-11-21T18:27:31;12.30;99.90
23497;DHT22;11925;48.122;11.560;2023-11-21T18:30:00;12.30;99.90
23497;DHT22;11925;48.122;11.560;2023-11-21T18:32:29;12.30;99.90
23497;DHT22;11925;48.122;11.560;2023-11-21T18:34:58;12.30;99.90
23497;DHT22;11925;48.122;11.560;2023-11-21T18:37:26;12.30;99.90
23497;DHT22;11925;48.122;11.560;2023-11-21T18:39:55;12.30;99.90
23497;DHT22;11925;48.122;11.560;2023-11-21T18:42:23;12.50;99.90
23497;DHT22;11925;48.122;11.560;2023-11-21T18:44:54;12.60;99.90
23497;DHT22;11925;48.122;11.560;2023-11-21T18:47:27;12.70;99.90
23497;DHT22;11925;48.122;11.560;2023-11-21T18:49:56;12.70;99.90
23497;DHT22;11925;48.122;11.560;2023-11-21T18:52:24;12.70;99.90
23497;DHT22;11925;48.122;11.560;2023-11-21T18:54:55;12.70;99.90
23497;DHT22;11925;48.122;11.560;2023-11-21T18:57:24;12.60;99.90
23497;DHT22;11925;48.122;11.560;2023-11-21T18:59:54;12.70;99.90
23497;DHT22;11925;48.122;11.560;2023-11-21T19:02:22;12.70;99.90
23497;DHT22;11925;48.122;11.560;2023-11-21T19:04:52;12.70;99.90
23497;DHT22;11925;48.122;11.560;2023-11-21T19:07:21;12.70;99.90
23497;DHT22;11925;48.122;11.560;2023-11-21T19:09:50;12.80;99.90
23497;DHT22;11925;48.122;11.560;2023-11-21T19:12:20;12.80;99.90
23497;DHT22;11925;48.122;11.560;2023-11-21T19:14:48;12.80;99.90
23497;DHT22;11925;48.122;11.560;2023-11-21T19:17:18;12.80;99.90
23497;DHT22;11925;48.122;11.560;2023-11-21T19:19:51;12.80;99.90
23497;DHT22;11925;48.122;11.560;2023-11-21T19:22:20;12.80;99.90
23497;DHT22;11925;48.122;11.560;2023-11-21T19:24:48;12.80;99.90
23497;DHT22;11925;48.122;11.560;2023-11-21T19:27:16;12.90;99.90
23497;DHT22;11925;48.122;11.560;2023-11-21T19:29:45;12.90;99.90
23497;DHT22;11925;48.122;11.560;2023-11-21T19:32:15;12.80;99.90
23497;DHT22;11925;48.122;11.560;2023-11-21T19:34:43;12.70;99.90
23497;DHT22;11925;48.122;11.560;2023-11-21T19:37:13;12.70;99.90
23497;DHT22;11925;48.122;11.560;2023-11-21T19:39:41;12.60;99.90
23497;DHT22;11925;48.122;11.560;2023-11-21T19:42:10;12.60;99.90
23497;DHT22;11925;48.122;11.560;2023-11-21T19:44:41;12.60;99.90
23497;DHT22;11925;48.122;11.560;2023-11-21T19:47:10;12.60;99.90
23497;DHT22;11925;48.122;11.560;2023-11-21T19:49:40;12.70;99.90
23497;DHT22;11925;48.122;11.560;2023-11-21T19:52:08;12.70;99.90
23497;DHT22;11925;48.122;11.560;2023-11-21T19:54:38;12.70;99.90
23497;DHT22;11925;48.122;11.560;2023-11-21T19:57:07;12.70;99.90
23497;DHT22;11925;48.122;11.560;2023-11-21T19:59:39;12.60;99.90
23497;DHT22;11925;48.122;11.560;2023-11-21T20:02:10;12.60;99.90
23497;DHT22;11925;48.122;11.560;2023-11-21T20:04:39;12.60;99.90
23497;DHT22;11925;48.122;11.560;2023-11-21T20:07:10;12.60;99.90
23497;DHT22;11925;48.122;11.560;2023-11-21T20:09:42;12.60;99.90
23497;DHT22;11925;48.122;11.560;2023-11-21T20:12:10;12.60;99.90
23497;DHT22;11925;48.122;11.560;2023-11-21T20:14:39;12.70;99.90
23497;DHT22;11925;48.122;11.560;2023-11-21T20:17:07;12.70;99.90
23497;DHT22;11925;48.122;11.560;2023-11-21T20:19:36;12.70;99.90
23497;DHT22;11925;48.122;11.560;2023-11-21T20:22:05;12.70;99.90
23497;DHT22;11925;48.122;11.560;2023-11-21T20:24:34;12.70;99.90
23497;DHT22;11925;48.122;11.560;2023-11-21T20:27:04;12.80;99.90
23497;DHT22;11925;48.122;11.560;2023-11-21T20:29:33;12.70;99.90
23497;DHT22;11925;48.122;11.560;2023-11-21T20:32:04;12.70;99.90
23497;DHT22;11925;48.122;11.560;2023-11-21T20:34:33;12.70;99.90
23497;DHT22;11925;48.122;11.560;2023-11-21T20:37:01;12.60;99.90
23497;DHT22;11925;48.122;11.560;2023-11-21T20:39:30;12.60;99.90
23497;DHT22;11925;48.122;11.560;2023-11-21T20:42:01;12.60;99.90
23497;DHT22;11925;48.122;11.560;2023-11-21T20:44:32;12.60;99.90
23497;DHT22;11925;48.122;11.560;2023-11-21T20:47:00;12.60;99.90
23497;DHT22;11925;48.122;11.560;2023-11-21T20:49:38;12.60;99.90
23497;DHT22;11925;48.122;11.560;2023-11-21T20:52:15;12.60;99.90
23497;DHT22;11925;48.122;11.560;2023-11-21T20:54:43;12.60;99.90
23497;DHT22;11925;48.122;11.560;2023-11-21T20:57:12;12.60;99.90
23497;DHT22;11925;48.122;11.560;2023-11-21T20:59:42;12.60;99.90
23497;DHT22;11925;48.122;11.560;2023-11-21T21:02:11;12.60;99.90
23497;DHT22;11925;48.122;11.560;2023-11-21T21:04:39;12.60;99.90
23497;DHT22;11925;48.122;11.560;2023-11-21T21:07:08;12.60;99.90
23497;DHT22;11925;48.122;11.560;2023-11-21T21:09:36;12.70;99.90
23497;DHT22;11925;48.122;11.560;2023-11-21T21:12:06;12.70;99.90
23497;DHT22;11925;48.122;11.560;2023-11-21T21:14:34;12.60;99.90
23497;DHT22;11925;48.122;11.560;2023-11-21T21:17:04;12.60;99.90
23497;DHT22;11925;48.122;11.560;2023-11-21T21:19:33;12.70;99.90
23497;DHT22;11925;48.122;11.560;2023-11-21T21:22:01;12.60;99.90
23497;DHT22;11925;48.122;11.560;2023-11-21T21:24:30;12.60;99.90
23497;DHT22;11925;48.122;11.560;2023-11-21T21:27:00;12.50;99.90
23497;DHT22;11925;48.122;11.560;2023-11-21T21:29:28;12.70;99.90
23497;DHT22;11925;48.122;11.560;2023-11-21T21:31:56;12.80;99.90
23497;DHT22;11925;48.122;11.560;2023-11-21T21:34:26;12.80;99.90
23497;DHT22;11925;48.122;11.560;2023-11-21T21:36:55;12.90;99.90
23497;DHT22;11925;48.122;11.560;2023-11-21T21:39:23;12.90;99.90
23497;DHT22;11925;48.122;11.560;2023-11-21T21:41:51;12.80;99.90
23497;DHT22;11925;48.122;11.560;2023-11-21T21:44:21;12.80;99.90
23497;DHT22;11925;48.122;11.560;2023-11-21T21:46:49;12.90;99.90
23497;DHT22;11925;48.122;11.560;2023-11-21T21:49:18;13.00;99.90
23497;DHT22;11925;48.122;11.560;2023-11-21T21:51:49;13.00;99.90
23497;DHT22;11925;48.122;11.560;2023-11-21T21:54:17;13.10;99.90
23497;DHT22;11925;48.122;11.560;2023-11-21T21:56:45;13.20;99.90
23497;DHT22;11925;48.122;11.560;2023-11-21T21:59:14;13.20;99.90
23497;DHT22;11925;48.122;11.560;2023-11-21T22:01:44;13.00;99.90
23497;DHT22;11925;48.122;11.560;2023-11-21T22:04:13;12.90;99.90
23497;DHT22;11925;48.122;11.560;2023-11-21T22:06:41;12.80;99.90
23497;DHT22;11925;48.122;11.560;2023-11-21T22:09:11;12.70;99.90
23497;DHT22;11925;48.122;11.560;2023-11-21T22:11:40;12.60;99.90
23497;DHT22;11925;48.122;11.560;2023-11-21T22:14:08;12.60;99.90
23497;DHT22;11925;48.122;11.560;2023-11-21T22:16:36;12.60;99.90
23497;DHT22;11925;48.122;11.560;2023-11-21T22:19:05;12.60;99.90
23497;DHT22;11925;48.122;11.560;2023-11-21T22:21:33;12.60;99.90
23497;DHT22;11925;48.122;11.560;2023-11-21T22:24:02;12.60;99.90
23497;DHT22;11925;48.122;11.560;2023-11-21T22:26:32;12.60;99.90
23497;DHT22;11925;48.122;11.560;2023-11-21T22:29:01;12.70;99.90
23497;DHT22;11925;48.122;11.560;2023-11-21T22:31:31;12.70;99.90
23497;DHT22;11925;48.122;11.560;2023-11-21T22:33:59;12.70;99.90
23497;DHT22;11925;48.122;11.560;2023-11-21T22:36:28;12.70;99.90
23497;DHT22;11925;48.122;11.560;2023-11-21T22:38:56;12.70;99.90
23497;DHT22;11925;48.122;11.560;2023-11-21T22:41:25;12.70;99.90
23497;DHT22;11925;48.122;11.560;2023-11-21T22:43:55;12.70;99.90
23497;DHT22;11925;48.122;11.560;2023-11-21T22:46:24;12.70;99.90
23497;DHT22;11925;48.122;11.560;2023-11-21T22:48:56;12.70;99.90
23497;DHT22;11925;48.122;11.560;2023-11-21T22:51:24;12.70;99.90
23497;DHT22;11925;48.122;11.560;2023-11-21T22:53:53;12.70;99.90
23497;DHT22;11925;48.122;11.560;2023-11-21T22:56:21;12.70;99.90
23497;DHT22;11925;48.122;11.560;2023-11-21T22:58:50;12.70;99.90
23497;DHT22;11925;48.122;11.560;2023-11-21T23:01:20;12.70;99.90
23497;DHT22;11925;48.122;11.560;2023-11-21T23:03:49;12.70;99.90
23497;DHT22;11925;48.122;11.560;2023-11-21T23:06:20;12.60;99.90
23497;DHT22;11925;48.122;11.560;2023-11-21T23:08:49;12.60;99.90
23497;DHT22;11925;48.122;11.560;2023-11-21T23:11:17;12.70;99.90
23497;DHT22;11925;48.122;11.560;2023-11-21T23:13:45;12.70;99.90
23497;DHT22;11925;48.122;11.560;2023-11-21T23:16:14;12.70;99.90
23497;DHT22;11925;48.122;11.560;2023-11-21T23:18:45;12.70;99.90
23497;DHT22;11925;48.122;11.560;2023-11-21T23:21:17;12.70;99.90
23497;DHT22;11925;48.122;11.560;2023-11-21T23:23:45;12.70;99.90
23497;DHT22;11925;48.122;11.560;2023-11-21T23:26:14;12.70;99.90
23497;DHT22;11925;48.122;11.560;2023-11-21T23:28:45;12.70;99.90
23497;DHT22;11925;48.122;11.560;2023-11-21T23:31:14;12.70;99.90
23497;DHT22;11925;48.122;11.560;2023-11-21T23:33:42;12.70;99.90
23497;DHT22;11925;48.122;11.560;2023-11-21T23:36:12;12.70;99.90
23497;DHT22;11925;48.122;11.560;2023-11-21T23:38:44;12.80;99.90
23497;DHT22;11925;48.122;11.560;2023-11-21T23:41:12;12.70;99.90
23497;DHT22;11925;48.122;11.560;2023-11-21T23:43:40;12.70;99.90
23497;DHT22;11925;48.122;11.560;2023-11-21T23:46:09;12.70;99.90
23497;DHT22;11925;48.122;11.560;2023-11-21T23:48:38;12.70;99.90
23497;DHT22;11925;48.122;11.560;2023-11-21T23:51:06;12.70;99.90
23497;DHT22;11925;48.122;11.560;2023-11-21T23:53:38;12.70;99.90
23497;DHT22;11925;48.122;11.560;2023-11-21T23:56:06;12.80;99.90
23497;DHT22;11925;48.122;11.560;2023-11-21T23:58:35;12.80;99.90
